メインページ
METAR-TAF:

METAR-TAF

空港 :

ソフィア空港

ソフィア, ブルガリア

緯度: 42-39N, 経度: 023-23E, 海抜: 586m

現時点の気象観測

当レポートは11分前の06:00(UTC)に作成
の風 4kt
気温 -4°C
湿度 86%
気圧 1020 hPa
視程: 8000m

METAR: LBSF 130600Z 17004KT 8000 NSC M04/M06 Q1020 NOSIG

時間: 08:11 (06:11 UTC)

予報

当レポートは1時間11分前の05:00(UTC)に作成
予報は13日の 06時(UTC)から 14日の 06時(UTC)まで有効
変向風 4kt
視程10km以上
1,500メートル以下は雲なし、積乱雲なし
13日の 20時(UTC)から 13日の 22時(UTC)まで徐々に
東/南東の風 8kt
高度3000ftの千切れ雲あり
14日の 00時(UTC)から 14日の 06時(UTC)まで一時的に
視程: 5000m
高度1000ftの雲は散在している
高度2200ftの曇り
雪, 雨

TAF: LBSF 130500Z 1306/1406 VRB04KT CAVOK BECMG 1320/1322 11008KT BKN030 TEMPO 1400/1406 5000 SNRA SCT010 OVC022

4,000以上の空港の気象観測と天気予報(METAR報とTAF報)

利用可能な観測所は地図上に黄色い丸と赤い丸で示す。

丸の上にカーソルを重ねると観測所名を参照できる。

次にクリックすると気象観測と天気予報を参照できる。

マップの切り替え:黒色「×」印の緑ボタンをクリックして拡大、「-」印の緑ボタンをクリックして縮小、緑色の三角印をクリックして隣りの地図に切り替え


METAR-TAF: